createdAt,value
2023-01-13T00:30:00.475Z,97203.19
2023-01-13T01:00:05.716Z,97167.00
2023-01-13T01:30:11.404Z,97181.84
2023-01-13T02:00:16.271Z,97159.88
2023-01-13T02:30:42.126Z,97132.59
2023-01-13T03:00:47.557Z,97110.31
2023-01-13T03:30:55.540Z,97107.75
2023-01-13T04:01:02.847Z,97124.69
2023-01-13T04:31:07.468Z,97165.66
2023-01-13T05:01:12.073Z,97152.00
2023-01-13T05:31:16.362Z,97155.63
2023-01-13T06:01:20.664Z,97176.09
2023-01-13T06:31:25.574Z,97185.53
2023-01-13T07:01:29.982Z,97210.81
2023-01-13T07:31:34.545Z,97261.56
2023-01-13T08:01:39.100Z,97291.38
2023-01-13T09:03:24.520Z,97336.28
2023-01-13T09:33:46.343Z,97342.00
2023-01-13T10:03:50.669Z,97365.66
2023-01-13T10:34:00.862Z,97374.00
2023-01-13T11:04:26.655Z,97352.88
2023-01-13T11:34:32.992Z,97392.94
2023-01-13T12:04:44.045Z,97413.78
2023-01-13T12:35:01.930Z,97402.66
2023-01-13T13:05:40.577Z,97439.09
2023-01-13T13:35:56.094Z,97438.75
2023-01-13T14:06:01.965Z,97468.66
2023-01-13T14:36:17.691Z,97498.41
2023-01-13T15:06:24.333Z,97540.59
2023-01-13T15:36:31.135Z,97596.59
2023-01-13T16:06:36.237Z,97621.31
2023-01-13T16:36:40.492Z,97665.16
2023-01-13T17:06:50.918Z,97712.88
2023-01-13T17:36:56.210Z,97745.94
2023-01-13T18:07:01.873Z,97768.19
2023-01-13T18:37:08.288Z,97821.53
2023-01-13T19:07:13.345Z,97848.53
2023-01-13T19:37:17.945Z,97906.53
2023-01-13T21:11:51.068Z,98002.25
2023-01-13T22:13:55.059Z,98015.69
2023-01-13T22:43:59.383Z,98078.44
2023-01-13T23:14:05.642Z,98096.41
2023-01-13T23:44:10.420Z,98085.47
